createdAt,value
2016-06-05T13:23:30.912Z,42.93
2016-06-05T13:24:30.906Z,42.93
2016-06-05T13:25:30.948Z,45.24
2016-06-05T13:26:31.005Z,45.34
2016-06-05T13:27:31.156Z,50.68
2016-06-05T13:28:31.097Z,53.59
2016-06-05T13:29:31.140Z,55.69
2016-06-05T13:30:31.167Z,53.3
2016-06-05T13:31:31.178Z,50.46
2016-06-05T13:32:31.237Z,49.75
2016-06-05T13:33:45.307Z,49.56
2016-06-05T13:34:31.282Z,50.7
2016-06-05T13:35:31.319Z,50.31
2016-06-05T13:36:31.341Z,48.95
2016-06-05T13:37:31.362Z,54.67
2016-06-05T13:38:31.382Z,56.9
2016-06-05T13:39:31.417Z,56.71
2016-06-05T13:40:31.437Z,56.51
2016-06-05T13:41:31.471Z,55.35
2016-06-05T13:42:31.491Z,57.48
2016-06-05T13:43:31.510Z,58.65
2016-06-05T13:44:31.545Z,59.61
2016-06-05T13:45:31.563Z,60
2016-06-05T13:47:31.616Z,61.39
2016-06-05T13:48:31.651Z,62.33
2016-06-05T13:49:31.512Z,62.95
2016-06-05T13:50:31.687Z,62.55
2016-06-05T13:51:31.705Z,62.36
2016-06-05T13:52:31.582Z,62.07
2016-06-05T13:53:31.773Z,61.98
2016-06-05T13:54:31.792Z,62.16
2016-06-05T13:55:31.810Z,56.37
2016-06-05T13:56:31.844Z,55.43
2016-06-05T13:57:31.846Z,53.3
2016-06-05T13:58:31.912Z,53.3
2016-06-05T13:59:31.915Z,52.84
2016-06-05T14:00:31.933Z,52.55
2016-06-05T14:01:31.951Z,50.34
2016-06-05T14:02:31.984Z,51.4
2016-06-05T14:03:32.003Z,51.23
2016-06-05T14:04:32.037Z,52.31
2016-06-05T14:05:32.056Z,49.87
2016-06-05T14:06:32.074Z,49.32
2016-06-05T14:07:32.108Z,48.93
2016-06-05T14:08:32.142Z,47.56
2016-06-05T14:09:32.160Z,48.66
2016-06-05T14:10:46.241Z,47.69
2016-06-05T14:11:32.196Z,46.42
2016-06-05T14:12:32.246Z,46.91
2016-06-05T14:14:32.283Z,45.08
2016-06-05T14:15:32.316Z,44.79
2016-06-05T14:16:32.336Z,45.67
2016-06-05T14:17:46.416Z,43.84
2016-06-05T14:18:32.388Z,41.79
2016-06-05T14:20:32.440Z,39.28
2016-06-05T14:21:32.473Z,36.35
2016-06-05T14:22:32.493Z,34.4
2016-06-05T14:23:32.510Z,32.26
2016-06-05T14:24:35.544Z,31.98
2016-06-05T14:25:32.562Z,32.18
2016-06-05T14:26:32.815Z,32.86
2016-06-05T14:27:32.615Z,33.93
2016-06-05T14:28:33.290Z,32.76
2016-06-05T14:29:46.729Z,32.18
2016-06-05T14:30:32.701Z,32.45
2016-06-05T14:31:32.719Z,32.06
2016-06-05T14:32:46.800Z,31.87
2016-06-05T14:33:32.786Z,33.62
2016-06-05T14:34:46.868Z,33.92
2016-06-05T14:36:32.686Z,30.22
2016-06-05T14:37:32.876Z,30.22
2016-06-05T14:38:32.894Z,32.16
2016-06-05T14:39:46.991Z,31.87
2016-06-05T14:40:32.962Z,31.19
2016-06-05T14:41:32.996Z,30.78
2016-06-05T14:44:32.161Z,31.27
2016-06-05T14:45:33.085Z,30.78
2016-06-05T14:46:36.103Z,30.29
2016-06-05T14:47:33.324Z,29.82
2016-06-05T14:48:33.155Z,30.31
2016-06-05T14:49:33.190Z,30.21
2016-06-05T14:50:33.208Z,31.09
2016-06-05T14:51:47.304Z,30.49
2016-06-05T14:52:47.323Z,30.68
2016-06-05T14:53:33.278Z,31.37
2016-06-05T14:54:33.297Z,30.39
2016-06-05T14:55:33.332Z,29.03
2016-06-05T14:56:33.365Z,29.03
2016-06-05T14:59:33.435Z,30.08
2016-06-05T15:00:33.469Z,29.97
2016-06-05T15:02:33.506Z,31.13
2016-06-05T15:03:33.570Z,30.26
2016-06-05T15:04:33.558Z,29.78
2016-06-05T15:05:33.592Z,29.69
2016-06-05T15:06:33.611Z,29.69
2016-06-05T15:10:33.731Z,29.5
2016-06-05T15:11:47.827Z,29.21
2016-06-05T15:13:34.425Z,28.93
2016-06-05T15:17:33.936Z,29.21
2016-06-05T15:18:36.939Z,29.6
2016-06-05T15:19:48.020Z,30.47
2016-06-05T15:20:33.976Z,30.17
2016-06-05T15:21:33.994Z,29.49
2016-06-05T15:22:48.091Z,29.97
2016-06-05T15:23:34.047Z,29.68
2016-06-05T15:24:48.143Z,30.07
2016-06-05T15:25:34.115Z,30.36
2016-06-05T15:26:48.195Z,30.17
2016-06-05T15:27:34.167Z,30.15
2016-06-05T15:29:34.218Z,29.86
2016-06-05T15:30:34.221Z,30.15
2016-06-05T15:31:34.256Z,29.16
2016-06-05T15:32:34.289Z,29.94
2016-06-05T15:33:48.371Z,30.74
2016-06-05T15:34:34.326Z,30.35
2016-06-05T15:35:34.360Z,30.25
2016-06-05T15:36:34.379Z,30.24
2016-06-05T15:37:34.256Z,30.05
2016-06-05T15:38:34.430Z,30.14
2016-06-05T15:39:48.528Z,30.62
2016-06-05T15:40:34.498Z,30.72
2016-06-05T15:41:34.516Z,30.52
2016-06-05T15:42:34.536Z,30.25
2016-06-05T15:43:34.444Z,30.35
2016-06-05T15:44:34.588Z,30.33
2016-06-05T15:45:34.621Z,30.43
2016-06-05T15:46:34.625Z,29.86
2016-06-05T15:47:34.658Z,29.47
2016-06-05T15:48:34.691Z,30.64
2016-06-05T15:49:34.726Z,30.44
2016-06-05T15:50:34.744Z,29.47
2016-06-05T15:51:34.763Z,29.18
2016-06-05T15:52:34.781Z,29.85
2016-06-05T15:53:34.815Z,29.65
2016-06-05T15:54:34.849Z,29.76
2016-06-05T15:55:34.851Z,29.18
2016-06-05T15:56:34.885Z,29.86
2016-06-05T15:57:34.904Z,29.47
2016-06-05T15:58:35.610Z,29.76
2016-06-05T15:59:34.971Z,28.69
2016-06-05T16:00:34.990Z,28.99
2016-06-05T16:01:35.009Z,28.89
2016-06-05T16:02:35.043Z,28.11
2016-06-05T16:03:35.060Z,28.3
2016-06-05T16:04:35.095Z,28.5
2016-06-05T16:05:35.112Z,28.89
2016-06-05T16:06:35.148Z,28.4
2016-06-05T16:07:35.164Z,29.29
2016-06-05T16:08:35.198Z,28.7
2016-06-05T16:09:35.201Z,28.04
2016-06-05T16:10:35.251Z,27.94
2016-06-05T16:11:35.269Z,27.75
2016-06-05T16:12:35.303Z,28.15
2016-06-05T16:13:36.041Z,28.44
2016-06-05T16:14:35.340Z,33.33
2016-06-05T16:15:35.375Z,37.43
2016-06-05T16:16:35.392Z,38.98
2016-06-05T16:17:35.427Z,40.42
2016-06-05T16:18:35.460Z,40.41
2016-06-05T16:19:35.478Z,41.48
2016-06-05T16:20:35.497Z,42.65
2016-06-05T16:21:35.530Z,42.24
2016-06-05T16:22:35.549Z,42.43
2016-06-05T16:23:35.583Z,43.3
2016-06-05T16:24:35.601Z,43.19
2016-06-05T16:25:35.619Z,43.87
2016-06-05T16:26:35.654Z,42.99
2016-06-05T16:27:35.688Z,43.21
2016-06-05T16:28:35.721Z,42.43
2016-06-05T16:29:35.724Z,42.63
2016-06-05T16:30:35.758Z,42.33
2016-06-05T16:31:36.135Z,42.82
2016-06-05T16:32:35.842Z,43.21
2016-06-05T16:33:35.844Z,43.19
2016-06-05T16:34:35.862Z,43.3
2016-06-05T16:35:35.896Z,42.9
2016-06-05T16:36:35.915Z,43.29
2016-06-05T16:37:35.949Z,43.38
2016-06-05T16:38:35.983Z,43.7
2016-06-05T16:39:35.986Z,43.5
2016-06-05T16:40:36.019Z,43.21
2016-06-05T16:41:36.037Z,43.77
2016-06-05T16:42:36.228Z,44.16
2016-06-05T16:43:35.980Z,44.84
2016-06-05T16:44:36.124Z,43.96
2016-06-05T16:45:36.142Z,44.84
2016-06-05T16:46:36.192Z,45.69
2016-06-05T16:47:36.211Z,45.4
2016-06-05T16:48:36.244Z,45.79
2016-06-05T16:49:36.263Z,45.4
2016-06-05T16:50:36.280Z,45.67
2016-06-05T16:51:36.314Z,45.77
2016-06-05T16:52:36.333Z,46.74
2016-06-05T16:53:36.366Z,45.87
2016-06-05T16:54:37.292Z,46.64
2016-06-05T16:55:36.263Z,47.03
2016-06-05T16:56:36.437Z,47.23
2016-06-05T16:57:36.596Z,47.13
2016-06-05T16:58:36.912Z,46.35
2016-06-05T16:59:36.695Z,46.55
2016-06-05T17:00:36.558Z,45.87
2016-06-05T17:01:36.513Z,45.57
2016-06-05T17:02:36.673Z,45.57
2016-06-05T17:03:36.613Z,45.97
2016-06-05T17:04:36.631Z,46.35
2016-06-05T17:05:36.664Z,46.06
2016-06-05T17:06:36.698Z,45.57
2016-06-05T17:07:36.717Z,45.48
2016-06-05T17:08:36.922Z,45.57
2016-06-05T17:09:36.706Z,46.45
2016-06-05T17:10:36.631Z,46.35
2016-06-05T17:11:36.931Z,46.06
2016-06-05T17:13:36.873Z,45.67
2016-06-05T17:14:50.970Z,45.28
2016-06-05T17:15:51.551Z,46.15
2016-06-05T17:16:36.960Z,45.77
2016-06-05T17:17:51.042Z,45.97
2016-06-05T17:18:37.059Z,46.15
2016-06-05T17:19:37.156Z,46.35
2016-06-05T17:20:37.050Z,46.84
2016-06-05T17:21:37.177Z,46.84
2016-06-05T17:22:37.101Z,47.03
2016-06-05T17:23:37.229Z,47.03
2016-06-05T17:24:37.247Z,46.74
2016-06-05T17:25:37.172Z,47.11
2016-06-05T17:26:37.190Z,47.11
2016-06-05T17:27:37.224Z,47.69
2016-06-05T17:28:37.664Z,47.98
2016-06-05T17:29:37.120Z,47.78
2016-06-05T17:31:37.640Z,47.78
2016-06-05T17:32:37.363Z,47.98
2016-06-05T17:33:37.381Z,47.78
2016-06-05T17:34:37.337Z,46.98
2016-06-05T17:35:37.354Z,47.3
2016-06-05T17:37:37.469Z,46.79
2016-06-05T17:38:37.503Z,46.5
2016-06-05T17:39:37.381Z,46.6
2016-06-05T17:40:37.587Z,46.31
2016-06-05T17:41:37.573Z,46.98
2016-06-05T17:42:37.920Z,46.79
2016-06-05T17:43:37.612Z,47.08
2016-06-05T17:44:37.504Z,47.66
2016-06-05T17:45:37.694Z,47.66
2016-06-05T17:46:37.557Z,46.89
2016-06-05T17:47:51.794Z,47.38
2016-06-05T17:48:37.702Z,46.98
2016-06-05T17:49:37.720Z,46.89
2016-06-05T17:50:37.644Z,46.79
2016-06-05T17:51:37.680Z,46.6
2016-06-05T17:52:37.697Z,46.01
2016-06-05T17:53:37.872Z,46.31
2016-06-05T17:54:37.906Z,46.11
2016-06-05T17:55:37.877Z,46.21
2016-06-05T17:56:37.959Z,46.41
2016-06-05T17:57:37.976Z,46.98
2016-06-05T17:58:38.011Z,47.08
2016-06-05T17:59:38.060Z,46.79
2016-06-05T18:00:38.047Z,46.33
2016-06-05T18:01:38.082Z,45.65
2016-06-05T18:02:38.099Z,46.04
2016-06-05T18:03:38.133Z,46.14
2016-06-05T18:04:38.151Z,46.42
2016-06-05T18:05:38.185Z,46.04
2016-06-05T18:06:38.204Z,46.23
2016-06-05T18:07:38.238Z,46.33
2016-06-05T18:08:38.257Z,46.64
2016-06-05T18:09:38.290Z,46.94
2016-06-05T18:10:38.324Z,46.35
2016-06-05T18:11:38.326Z,46.64
2016-06-05T18:12:38.361Z,46.94
2016-06-05T18:13:38.426Z,46.45
2016-06-05T18:14:38.398Z,46.37
2016-06-05T18:15:38.431Z,46.37
2016-06-05T18:16:38.465Z,46.57
2016-06-05T18:17:38.483Z,45.69
2016-06-05T18:18:38.517Z,44.72
2016-06-05T18:19:38.551Z,44.65
2016-06-05T18:20:38.554Z,44.45
2016-06-05T18:21:38.589Z,43.77
2016-06-05T18:22:38.622Z,43.87
2016-06-05T18:23:38.641Z,43.7
2016-06-05T18:24:38.674Z,43.5
2016-06-05T18:25:38.709Z,43.7
2016-06-05T18:26:38.727Z,44.09
2016-06-05T18:27:39.494Z,45.08
2016-06-05T18:28:39.388Z,44.59
2016-06-05T18:29:38.813Z,43.54
2016-06-05T18:30:52.894Z,42.69
2016-06-05T18:31:38.865Z,41.56
2016-06-05T18:32:38.883Z,41.36
2016-06-05T18:33:38.760Z,41.09
2016-06-05T18:34:38.935Z,41.58
2016-06-05T18:35:38.969Z,41.58
2016-06-05T18:36:38.987Z,42.44
2016-06-05T18:37:39.021Z,42.34
2016-06-05T18:38:39.056Z,42.12
2016-06-05T18:39:39.074Z,42.51
2016-06-05T18:40:39.108Z,42.14
2016-06-05T18:41:39.126Z,42.54
2016-06-05T18:42:39.160Z,42.73
2016-06-05T18:43:40.194Z,42.22
2016-06-05T18:44:39.197Z,42.02
2016-06-05T18:45:39.231Z,42.05
2016-06-05T18:46:39.108Z,40.41
2016-06-05T18:47:39.298Z,39.28
2016-06-05T18:48:39.316Z,38.04
2016-06-05T18:49:39.350Z,36.79
2016-06-05T18:50:39.385Z,35.65
2016-06-05T18:51:39.403Z,35.17
2016-06-05T18:52:39.437Z,34.7
2016-06-05T18:53:39.472Z,34.52
2016-06-05T18:54:39.505Z,34.03
2016-06-05T18:55:39.539Z,34.23
2016-06-05T18:56:39.573Z,34.03
2016-06-05T18:57:39.435Z,34.72
2016-06-05T18:58:39.860Z,34.81
2016-06-05T18:59:39.502Z,35.29
2016-06-05T19:01:39.727Z,38.73
2016-06-05T19:02:39.729Z,40.74
2016-06-05T19:03:39.591Z,42.16
2016-06-05T19:04:39.797Z,43.57
2016-06-05T19:05:39.832Z,44.71
2016-06-05T19:06:39.835Z,46.42
2016-06-05T19:07:39.868Z,47.37
2016-06-05T19:08:39.746Z,48.9
2016-06-05T19:09:39.765Z,49.85
2016-06-05T19:10:39.954Z,51.65
2016-06-05T19:11:39.973Z,51.84
2016-06-05T19:12:39.865Z,53.08
2016-06-05T19:13:40.040Z,53.34
2016-06-05T19:14:40.059Z,54.21
2016-06-05T19:15:40.077Z,55.35
2016-06-05T19:16:40.096Z,56.23
2016-06-05T19:17:40.145Z,55.9
2016-06-05T19:18:40.163Z,56.68
2016-06-05T19:19:40.197Z,56.75
2016-06-05T19:20:40.044Z,57.33
2016-06-05T19:21:40.233Z,57.43
2016-06-05T19:22:40.253Z,58.27
2016-06-05T19:23:40.286Z,59.33
2016-06-05T19:24:40.305Z,60.21
2016-06-05T19:25:40.338Z,60.98
2016-06-05T19:26:40.372Z,61.53
2016-06-05T19:27:40.250Z,61.72
2016-06-05T19:28:41.191Z,62.27
2016-06-05T19:29:40.427Z,62.47
2016-06-05T19:30:40.289Z,62.37
2016-06-05T19:31:40.480Z,62.82
2016-06-05T19:32:40.497Z,63.02
2016-06-05T19:33:40.547Z,63.79
2016-06-05T19:34:40.550Z,64.37
2016-06-05T19:35:40.412Z,64.56
2016-06-05T19:36:40.602Z,64.85
2016-06-05T19:37:40.620Z,65.53
2016-06-05T19:38:40.654Z,65.59
2016-06-05T19:39:40.673Z,66.08
2016-06-05T19:40:40.691Z,66.36
2016-06-05T19:41:40.553Z,66.56
2016-06-05T19:42:40.587Z,67.24
2016-06-05T19:43:40.762Z,66.82
2016-06-05T19:44:40.780Z,67.88
2016-06-05T19:45:40.815Z,67.59
2016-06-05T19:46:40.832Z,67.49
2016-06-05T19:47:40.850Z,67.97
2016-06-05T19:48:40.884Z,67.69
2016-06-05T19:49:40.903Z,68.17
2016-06-05T19:50:40.921Z,68.55
2016-06-05T19:51:40.940Z,68.62
2016-06-05T19:52:40.973Z,69.2
2016-06-05T19:53:41.007Z,69.29
2016-06-05T19:54:41.025Z,69
2016-06-05T19:55:41.045Z,69.29
2016-06-05T19:56:41.078Z,69.58
2016-06-05T19:57:55.628Z,69.58
2016-06-05T19:58:42.036Z,69.97
2016-06-05T19:59:41.132Z,69.39
2016-06-05T20:00:41.152Z,69.64
2016-06-05T20:01:41.185Z,69.84
2016-06-05T20:02:41.203Z,69.93
2016-06-05T20:03:41.237Z,69.93
2016-06-05T20:04:41.241Z,70.22
2016-06-05T20:05:41.274Z,70.8
2016-06-05T20:06:41.293Z,71.28
2016-06-05T20:07:41.326Z,71.38
2016-06-05T20:08:41.344Z,71.48
2016-06-05T20:09:41.346Z,71.44
2016-06-05T20:10:41.382Z,71.83
2016-06-05T20:11:41.415Z,71.73
2016-06-05T20:12:41.434Z,71.73
2016-06-05T20:13:41.561Z,72.5
2016-06-05T20:14:41.471Z,72.41
2016-06-05T20:15:41.488Z,72.69
2016-06-05T20:16:41.523Z,73.27
2016-06-05T20:17:41.540Z,72.95
2016-06-05T20:18:41.574Z,73.05
2016-06-05T20:19:41.578Z,72.85
2016-06-05T20:20:41.612Z,73.14
2016-06-05T20:21:41.629Z,73.72
2016-06-05T20:22:41.647Z,73.53
2016-06-05T20:23:41.682Z,73.82
2016-06-05T20:24:41.700Z,73.82
2016-06-05T20:25:41.718Z,73.82
2016-06-05T20:26:41.736Z,73.72
2016-06-05T20:27:41.756Z,74.1
2016-06-05T20:28:41.852Z,74.1
2016-06-05T20:29:41.808Z,74.2
2016-06-05T20:30:41.825Z,74.78
2016-06-05T20:31:41.843Z,75.36
2016-06-05T20:32:41.877Z,75.84
2016-06-05T20:33:41.897Z,75.42
2016-06-05T20:34:41.930Z,75.61
2016-06-05T20:35:41.932Z,75.9
2016-06-05T20:36:41.966Z,76.09
2016-06-05T20:43:09.015Z,76.28
2016-06-05T20:43:19.311Z,76.67
2016-06-05T20:44:20.205Z,76.67
2016-06-05T20:45:19.363Z,76.06
2016-06-05T20:46:19.193Z,76.28
2016-06-05T20:47:19.400Z,76.28
2016-06-05T20:48:19.403Z,76.53
2016-06-05T20:49:19.437Z,76.34
2016-06-05T20:50:19.455Z,76.73
2016-06-05T20:51:19.473Z,77.01
2016-06-05T20:52:19.492Z,77.5
2016-06-05T20:53:19.510Z,77.5
2016-06-05T20:54:19.544Z,77.31
2016-06-05T20:55:19.562Z,77.69
2016-06-05T20:56:19.581Z,77.98
